Time;durP1;ratioP1;P1;durP2;ratioP2;P2;SDS_P1;SDS_P2;PMS_P1;PMS_P2;Temp;Humidity;BMP_temperature;BMP_pressure;BME280_temperature;BME280_humidity;BME280_pressure;Samples;Min_cycle;Max_cycle;Signal;HPM_P1;HPM_P2
2021/07/03 00:00:01;;;;;;;6.13;5.40;;;;;;;;;;340073;28;111952;-76
2021/07/03 00:00:22;;;;;;;7.35;6.00;;;;;;;;;;342119;28;137688;-75
2021/07/03 00:00:35;;;;;;;7.60;6.10;;;;;;;;;;344299;28;67026;-75
2021/07/03 00:00:52;;;;;;;6.97;5.85;;;;;;;;;;343330;28;137722;-74
2021/07/03 00:01:06;;;;;;;7.13;5.50;;;;;;;;;;345622;28;69087;-75
2021/07/03 00:01:29;;;;;;;6.20;5.60;;;;;;;;;;343350;28;137442;-76
2021/07/03 00:01:41;;;;;;;6.30;5.43;;;;;;;;;;345424;28;67877;-75
2021/07/03 00:02:01;;;;;;;6.22;5.28;;;;;;;;;;346284;28;45942;-75
2021/07/03 00:02:24;;;;;;;6.60;5.55;;;;;;;;;;343149;28;137388;-76
2021/07/03 00:02:42;;;;;;;6.53;5.45;;;;;;;;;;344380;28;137389;-75
2021/07/03 00:03:03;;;;;;;6.53;5.72;;;;;;;;;;345280;28;161698;-76
2021/07/03 00:03:21;;;;;;;6.75;5.55;;;;;;;;;;346025;28;137775;-76
2021/07/03 00:03:41;;;;;;;7.93;5.40;;;;;;;;;;346157;28;137411;-76
2021/07/03 00:03:58;;;;;;;7.25;5.63;;;;;;;;;;347554;28;137752;-75
2021/07/03 00:04:17;;;;;;;6.50;5.70;;;;;;;;;;345572;28;114873;-76
2021/07/03 00:04:41;;;;;;;6.53;5.55;;;;;;;;;;344682;28;137821;-77
2021/07/03 00:04:59;;;;;;;6.32;5.65;;;;;;;;;;343039;28;137757;-77
2021/07/03 00:05:12;;;;;;;7.03;6.05;;;;;;;;;;343504;28;116350;-78
2021/07/03 00:05:28;;;;;;;7.00;5.90;;;;;;;;;;341629;28;136915;-75
2021/07/03 00:05:44;;;;;;;6.63;5.57;;;;;;;;;;339190;28;137071;-75
2021/07/03 00:06:09;;;;;;;7.28;5.82;;;;;;;;;;340465;28;139098;-75
2021/07/03 00:06:35;;;;;;;5.95;5.35;;;;;;;;;;342097;28;136820;-76
2021/07/03 00:06:53;;;;;;;6.50;5.40;;;;;;;;;;342165;28;138396;-75
2021/07/03 00:07:09;;;;;;;7.32;5.43;;;;;;;;;;339670;28;136761;-73
2021/07/03 00:07:24;;;;;;;6.63;5.38;;;;;;;;;;342714;28;68861;-76
2021/07/03 00:07:50;;;;;;;7.00;5.97;;;;;;;;;;340844;28;137739;-76
2021/07/03 00:08:14;;;;;;;6.63;5.95;;;;;;;;;;340941;28;157658;-75
2021/07/03 00:08:32;;;;;;;6.68;5.65;;;;;;;;;;343969;28;115703;-75
2021/07/03 00:08:53;;;;;;;6.55;5.50;;;;;;;;;;343095;28;136862;-76
2021/07/03 00:09:11;;;;;;;6.50;5.80;;;;;;;;;;343065;28;137461;-76
2021/07/03 00:09:41;;;;;;;7.38;5.85;;;;;;;;;;341607;28;134734;-76
2021/07/03 00:10:17;;;;;;;6.30;5.65;;;;;;;;;;345472;28;34206;-74
2021/07/03 00:10:42;;;;;;;6.30;5.70;;;;;;;;;;340474;28;134876;-77
2021/07/03 00:11:08;;;;;;;7.28;5.72;;;;;;;;;;340488;28;135752;-76
2021/07/03 00:11:26;;;;;;;6.13;5.50;;;;;;;;;;340857;28;137178;-76
2021/07/03 00:12:10;;;;;;;6.35;5.60;;;;;;;;;;345407;28;34323;-76
2021/07/03 00:12:30;;;;;;;6.70;6.00;;;;;;;;;;343020;28;159545;-76
2021/07/03 00:12:43;;;;;;;7.63;5.93;;;;;;;;;;345383;28;138179;-72
2021/07/03 00:13:20;;;;;;;7.43;5.88;;;;;;;;;;348071;28;68974;-74
2021/07/03 00:13:38;;;;;;;7.03;6.03;;;;;;;;;;347624;28;137239;-75
2021/07/03 00:13:59;;;;;;;8.90;6.20;;;;;;;;;;347576;28;137015;-76
2021/07/03 00:14:24;;;;;;;8.93;5.68;;;;;;;;;;346181;28;137375;-75
2021/07/03 00:14:45;;;;;;;7.70;5.30;;;;;;;;;;344748;28;137456;-74
2021/07/03 00:15:13;;;;;;;7.22;5.82;;;;;;;;;;343440;28;158239;-76
2021/07/03 00:15:37;;;;;;;7.15;5.80;;;;;;;;;;343160;28;137797;-76
2021/07/03 00:16:01;;;;;;;6.63;5.60;;;;;;;;;;343459;28;137109;-76
2021/07/03 00:16:17;;;;;;;7.38;5.80;;;;;;;;;;343422;28;137957;-76
2021/07/03 00:16:37;;;;;;;7.55;5.80;;;;;;;;;;341357;28;137736;-75
2021/07/03 00:17:03;;;;;;;7.43;5.70;;;;;;;;;;340704;28;135938;-76
2021/07/03 00:17:31;;;;;;;6.45;5.43;;;;;;;;;;342876;28;137381;-76
2021/07/03 00:17:44;;;;;;;7.15;5.63;;;;;;;;;;343350;28;92416;-74
2021/07/03 00:18:13;;;;;;;;;;;;;;;;;;;;;
2021/07/03 00:18:45;;;;;;;6.05;5.43;;;;;;;;;;343302;28;137343;-75
2021/07/03 00:19:01;;;;;;;7.25;5.85;;;;;;;;;;345860;28;137348;-74
2021/07/03 00:19:17;;;;;;;7.40;5.82;;;;;;;;;;346284;28;89757;-75
2021/07/03 00:19:33;;;;;;;7.28;5.68;;;;;;;;;;344917;28;138303;-76
2021/07/03 00:19:50;;;;;;;7.95;5.72;;;;;;;;;;345351;28;160706;-75
2021/07/03 00:20:12;;;;;;;6.97;5.82;;;;;;;;;;344501;28;135432;-76
2021/07/03 00:20:26;;;;;;;6.57;5.85;;;;;;;;;;344309;28;137499;-77
2021/07/03 00:21:00;;;;;;;7.30;5.82;;;;;;;;;;343333;28;138854;-77
2021/07/03 00:21:15;;;;;;;7.03;5.53;;;;;;;;;;342641;28;135144;-76
2021/07/03 00:21:34;;;;;;;6.75;5.80;;;;;;;;;;343039;28;139117;-76
2021/07/03 00:21:49;;;;;;;6.70;5.75;;;;;;;;;;341995;28;137966;-77
2021/07/03 00:22:09;;;;;;;6.68;5.55;;;;;;;;;;342914;28;137662;-76
2021/07/03 00:22:25;;;;;;;6.80;5.40;;;;;;;;;;345399;28;66050;-77
2021/07/03 00:22:50;;;;;;;7.07;6.05;;;;;;;;;;344811;28;136531;-75
2021/07/03 00:23:05;;;;;;;7.82;6.00;;;;;;;;;;344400;28;139351;-74
2021/07/03 00:23:30;;;;;;;6.88;5.50;;;;;;;;;;346058;28;136316;-75
2021/07/03 00:23:45;;;;;;;6.63;5.45;;;;;;;;;;345288;28;135921;-76
2021/07/03 00:24:04;;;;;;;6.70;5.95;;;;;;;;;;345985;28;137463;-76
2021/07/03 00:24:25;;;;;;;7.97;6.30;;;;;;;;;;342840;28;134359;-75
2021/07/03 00:24:53;;;;;;;7.15;6.03;;;;;;;;;;343414;28;136617;-75
2021/07/03 00:25:09;;;;;;;6.88;5.82;;;;;;;;;;345375;28;68967;-77
2021/07/03 00:25:24;;;;;;;6.47;5.78;;;;;;;;;;343025;28;134640;-77
2021/07/03 00:25:42;;;;;;;6.47;5.82;;;;;;;;;;343134;28;114991;-77
2021/07/03 00:25:55;;;;;;;7.38;5.95;;;;;;;;;;343395;28;137699;-77
2021/07/03 00:26:13;;;;;;;8.15;5.70;;;;;;;;;;342585;28;160432;-76
2021/07/03 00:26:31;;;;;;;7.72;5.93;;;;;;;;;;344036;28;114757;-75
2021/07/03 00:26:48;;;;;;;7.78;6.18;;;;;;;;;;341998;28;135186;-75
2021/07/03 00:27:10;;;;;;;8.45;6.25;;;;;;;;;;340767;28;136059;-77
2021/07/03 00:27:31;;;;;;;9.68;5.85;;;;;;;;;;340581;28;135394;-77
2021/07/03 00:27:54;;;;;;;10.00;6.05;;;;;;;;;;341213;28;160395;-76
2021/07/03 00:28:10;;;;;;;9.65;6.25;;;;;;;;;;343401;28;138556;-76
2021/07/03 00:28:26;;;;;;;8.15;5.90;;;;;;;;;;342992;28;138717;-73
2021/07/03 00:28:47;;;;;;;8.27;5.90;;;;;;;;;;346274;28;46101;-76
2021/07/03 00:29:08;;;;;;;7.28;6.07;;;;;;;;;;343735;28;160088;-75
2021/07/03 00:29:30;;;;;;;6.88;6.15;;;;;;;;;;345076;28;138280;-75
2021/07/03 00:29:47;;;;;;;6.95;5.97;;;;;;;;;;345698;28;136884;-76
2021/07/03 00:30:25;;;;;;;7.63;6.47;;;;;;;;;;346042;28;137351;-75
2021/07/03 00:30:38;;;;;;;7.32;6.06;;;;;;;;;;345866;28;138301;-75
2021/07/03 00:30:51;;;;;;;7.78;6.03;;;;;;;;;;344514;28;41868;-75
2021/07/03 00:31:05;;;;;;;9.45;6.45;;;;;;;;;;344179;28;115323;-75
2021/07/03 00:31:23;;;;;;;7.32;6.30;;;;;;;;;;342446;28;160830;-74
2021/07/03 00:32:02;;;;;;;7.90;6.28;;;;;;;;;;342802;28;34371;-76
2021/07/03 00:32:17;;;;;;;6.97;6.10;;;;;;;;;;338519;28;160647;-76
2021/07/03 00:32:34;;;;;;;6.75;6.10;;;;;;;;;;336881;28;160708;-76
2021/07/03 00:32:55;;;;;;;7.80;6.50;;;;;;;;;;339690;28;160268;-75
2021/07/03 00:33:15;;;;;;;8.05;6.30;;;;;;;;;;343412;28;92183;-75
2021/07/03 00:33:34;;;;;;;7.07;6.38;;;;;;;;;;341846;28;138778;-76
2021/07/03 00:34:01;;;;;;;8.57;6.38;;;;;;;;;;341890;28;138037;-75
2021/07/03 00:34:14;;;;;;;8.05;6.53;;;;;;;;;;341926;28;139138;-76
2021/07/03 00:34:32;;;;;;;7.68;6.10;;;;;;;;;;340536;28;160584;-76
2021/07/03 00:34:52;;;;;;;7.30;6.10;;;;;;;;;;344128;28;69147;-75
2021/07/03 00:35:15;;;;;;;7.63;6.60;;;;;;;;;;341289;28;137730;-76
2021/07/03 00:35:33;;;;;;;7.90;6.45;;;;;;;;;;344391;28;67840;-75
2021/07/03 00:35:55;;;;;;;8.55;6.07;;;;;;;;;;340584;28;137591;-76
2021/07/03 00:36:10;;;;;;;7.70;6.03;;;;;;;;;;340455;28;138559;-76
2021/07/03 00:36:34;;;;;;;7.15;6.45;;;;;;;;;;341182;28;137720;-76
2021/07/03 00:36:50;;;;;;;7.40;6.68;;;;;;;;;;340491;28;137449;-78
2021/07/03 00:37:05;;;;;;;7.35;6.50;;;;;;;;;;339231;28;137825;-75
2021/07/03 00:37:46;;;;;;;7.40;6.45;;;;;;;;;;342048;28;36075;-74
2021/07/03 00:38:05;;;;;;;7.78;6.30;;;;;;;;;;340597;28;137715;-76
2021/07/03 00:38:27;;;;;;;7.72;5.82;;;;;;;;;;340537;28;137477;-76
2021/07/03 00:38:45;;;;;;;7.00;5.85;;;;;;;;;;340900;28;136388;-76
2021/07/03 00:38:58;;;;;;;6.93;5.75;;;;;;;;;;343096;28;92521;-76
2021/07/03 00:39:10;;;;;;;6.70;5.95;;;;;;;;;;344775;28;47228;-75
2021/07/03 00:39:30;;;;;;;6.75;6.03;;;;;;;;;;341928;28;137563;-76
2021/07/03 00:39:57;;;;;;;6.32;5.57;;;;;;;;;;341185;28;160689;-76
2021/07/03 00:40:21;;;;;;;6.63;5.50;;;;;;;;;;341583;28;137523;-75
2021/07/03 00:40:45;;;;;;;7.28;5.90;;;;;;;;;;340954;28;159421;-74
2021/07/03 00:41:06;;;;;;;6.93;6.22;;;;;;;;;;341801;28;138495;-75
2021/07/03 00:41:36;;;;;;;6.90;6.20;;;;;;;;;;344099;28;69010;-77
2021/07/03 00:41:55;;;;;;;7.88;6.20;;;;;;;;;;343185;28;137514;-77
2021/07/03 00:42:15;;;;;;;9.35;6.50;;;;;;;;;;342309;28;138705;-77
2021/07/03 00:42:34;;;;;;;8.05;6.53;;;;;;;;;;339699;28;136281;-77
2021/07/03 00:42:58;;;;;;;7.07;6.38;;;;;;;;;;338921;28;136404;-76
2021/07/03 00:43:22;;;;;;;7.55;6.75;;;;;;;;;;337939;28;135012;-77
2021/07/03 00:43:41;;;;;;;7.90;6.55;;;;;;;;;;336944;28;157979;-76
2021/07/03 00:44:06;;;;;;;9.70;6.30;;;;;;;;;;339219;28;135223;-76
2021/07/03 00:44:31;;;;;;;9.48;6.43;;;;;;;;;;340408;28;138865;-74
2021/07/03 00:44:55;;;;;;;8.27;6.45;;;;;;;;;;340579;28;138821;-75
2021/07/03 00:45:16;;;;;;;9.38;6.45;;;;;;;;;;341375;28;137891;-73
2021/07/03 00:45:35;;;;;;;8.85;6.47;;;;;;;;;;341714;28;138562;-75
2021/07/03 00:45:52;;;;;;;7.32;6.43;;;;;;;;;;341080;28;137919;-74
2021/07/03 00:46:10;;;;;;;7.22;6.50;;;;;;;;;;340575;28;115830;-75
2021/07/03 00:46:25;;;;;;;7.75;6.50;;;;;;;;;;341649;28;136941;-73
2021/07/03 00:46:44;;;;;;;7.68;6.38;;;;;;;;;;341936;28;137771;-76
2021/07/03 00:47:02;;;;;;;7.72;6.43;;;;;;;;;;341799;28;137691;-74
2021/07/03 00:47:24;;;;;;;8.85;6.60;;;;;;;;;;341539;28;137826;-75
2021/07/03 00:47:43;;;;;;;8.02;6.45;;;;;;;;;;341582;28;137372;-75
2021/07/03 00:48:09;;;;;;;7.63;6.38;;;;;;;;;;340961;28;161250;-75
2021/07/03 00:48:22;;;;;;;6.97;6.07;;;;;;;;;;343049;28;137316;-76
2021/07/03 00:48:35;;;;;;;7.20;6.25;;;;;;;;;;343865;28;70784;-76
2021/07/03 00:48:53;;;;;;;8.20;6.40;;;;;;;;;;341947;28;137628;-76
2021/07/03 00:49:09;;;;;;;8.63;6.38;;;;;;;;;;344132;28;68990;-77
2021/07/03 00:49:36;;;;;;;6.80;6.10;;;;;;;;;;340648;28;136523;-77
2021/07/03 00:50:02;;;;;;;8.25;6.03;;;;;;;;;;336266;28;134639;-77
2021/07/03 00:50:22;;;;;;;8.18;6.13;;;;;;;;;;337880;28;134997;-76
2021/07/03 00:50:45;;;;;;;6.78;5.97;;;;;;;;;;339257;28;137433;-76
2021/07/03 00:50:59;;;;;;;8.13;6.30;;;;;;;;;;338984;28;137396;-76
2021/07/03 00:51:26;;;;;;;8.32;6.32;;;;;;;;;;337833;28;138889;-76
2021/07/03 00:51:46;;;;;;;7.65;6.10;;;;;;;;;;337798;28;136378;-75
2021/07/03 00:52:01;;;;;;;7.86;5.94;;;;;;;;;;339536;28;160143;-76
2021/07/03 00:52:19;;;;;;;8.52;5.95;;;;;;;;;;341095;28;114874;-77
2021/07/03 00:52:40;;;;;;;6.53;5.82;;;;;;;;;;339232;28;137954;-76
2021/07/03 00:53:00;;;;;;;7.68;5.50;;;;;;;;;;339172;28;138434;-75
2021/07/03 00:53:17;;;;;;;7.10;5.65;;;;;;;;;;340557;28;139041;-76
2021/07/03 00:53:40;;;;;;;7.93;6.05;;;;;;;;;;340053;28;162342;-75
2021/07/03 00:53:57;;;;;;;8.40;6.10;;;;;;;;;;340893;28;160656;-75
2021/07/03 00:54:12;;;;;;;7.05;5.72;;;;;;;;;;341743;28;137564;-76
2021/07/03 00:54:26;;;;;;;6.95;6.15;;;;;;;;;;343073;28;68775;-76
2021/07/03 00:54:40;;;;;;;6.90;6.20;;;;;;;;;;340511;28;88524;-77
2021/07/03 00:54:56;;;;;;;6.40;5.80;;;;;;;;;;337747;28;135681;-75
2021/07/03 00:55:14;;;;;;;6.70;6.00;;;;;;;;;;338781;29;67656;-76
2021/07/03 00:55:27;;;;;;;7.18;6.05;;;;;;;;;;336452;29;135349;-76
2021/07/03 00:55:39;;;;;;;6.78;6.07;;;;;;;;;;339036;29;70337;-75
2021/07/03 00:55:52;;;;;;;6.97;6.18;;;;;;;;;;338915;29;68850;-75
2021/07/03 00:56:05;;;;;;;6.72;6.03;;;;;;;;;;339674;29;45427;-75
2021/07/03 00:56:19;;;;;;;8.15;6.28;;;;;;;;;;337965;28;90429;-75
2021/07/03 00:56:31;;;;;;;8.73;6.30;;;;;;;;;;339493;28;66233;-72
2021/07/03 00:57:05;;;;;;;7.80;5.88;;;;;;;;;;337764;28;137663;-76
2021/07/03 00:57:37;;;;;;;8.07;5.90;;;;;;;;;;338299;28;137233;-75
2021/07/03 00:58:13;;;;;;;8.00;6.30;;;;;;;;;;337790;28;137776;-77
2021/07/03 00:58:29;;;;;;;7.75;6.47;;;;;;;;;;340381;28;138779;-76
2021/07/03 00:58:54;;;;;;;7.43;5.95;;;;;;;;;;340586;28;137616;-76
2021/07/03 00:59:18;;;;;;;7.57;6.32;;;;;;;;;;340383;28;134968;-76
2021/07/03 00:59:36;;;;;;;7.93;6.45;;;;;;;;;;340225;28;136173;-76
2021/07/03 01:00:03;;;;;;;8.70;6.50;;;;;;;;;;341135;28;160323;-76
2021/07/03 01:00:24;;;;;;;8.77;6.78;;;;;;;;;;340561;28;134447;-75
2021/07/03 01:00:37;;;;;;;8.55;6.50;;;;;;;;;;339256;28;138020;-75
2021/07/03 01:00:58;;;;;;;8.23;6.68;;;;;;;;;;340414;28;137676;-75
2021/07/03 01:01:19;;;;;;;7.20;6.50;;;;;;;;;;340663;28;137157;-76
2021/07/03 01:01:34;;;;;;;7.28;6.40;;;;;;;;;;343522;28;47209;-75
2021/07/03 01:01:53;;;;;;;8.48;6.28;;;;;;;;;;339109;28;135577;-77
2021/07/03 01:02:13;;;;;;;8.25;6.25;;;;;;;;;;342926;28;67887;-77
2021/07/03 01:02:38;;;;;;;7.13;5.95;;;;;;;;;;339300;28;137487;-76
2021/07/03 01:02:57;;;;;;;7.15;6.25;;;;;;;;;;339772;28;160400;-78
2021/07/03 01:03:15;;;;;;;7.55;6.07;;;;;;;;;;340552;28;137552;-76
2021/07/03 01:03:34;;;;;;;7.28;6.14;;;;;;;;;;341381;28;115059;-77
2021/07/03 01:03:49;;;;;;;7.03;6.18;;;;;;;;;;340582;28;137490;-77
2021/07/03 01:04:04;;;;;;;7.07;6.10;;;;;;;;;;342373;28;68885;-76
2021/07/03 01:04:17;;;;;;;6.85;6.15;;;;;;;;;;340972;28;115614;-77
2021/07/03 01:04:44;;;;;;;7.53;5.53;;;;;;;;;;339856;28;160282;-77
2021/07/03 01:05:06;;;;;;;6.93;5.78;;;;;;;;;;341842;28;137950;-77
2021/07/03 01:05:25;;;;;;;8.15;5.88;;;;;;;;;;341862;28;136607;-77
2021/07/03 01:05:41;;;;;;;8.15;5.53;;;;;;;;;;341625;28;139118;-75
2021/07/03 01:06:04;;;;;;;7.32;5.53;;;;;;;;;;341723;28;137850;-77
2021/07/03 01:06:23;;;;;;;8.70;6.00;;;;;;;;;;338927;28;135011;-75
2021/07/03 01:06:48;;;;;;;6.97;5.90;;;;;;;;;;341890;28;138734;-76
2021/07/03 01:07:02;;;;;;;7.50;5.97;;;;;;;;;;342225;28;114767;-75
2021/07/03 01:07:26;;;;;;;7.28;5.95;;;;;;;;;;341498;28;138031;-77
2021/07/03 01:07:44;;;;;;;6.63;5.63;;;;;;;;;;341623;28;138123;-76
2021/07/03 01:07:56;;;;;;;7.15;6.03;;;;;;;;;;340790;28;160552;-77
2021/07/03 01:08:16;;;;;;;7.45;6.18;;;;;;;;;;343905;28;68333;-76
2021/07/03 01:08:50;;;;;;;7.38;5.63;;;;;;;;;;341591;28;138416;-76
2021/07/03 01:09:17;;;;;;;6.68;5.95;;;;;;;;;;339079;28;135680;-76
2021/07/03 01:09:32;;;;;;;7.25;5.93;;;;;;;;;;337939;28;137332;-76
2021/07/03 01:10:05;;;;;;;7.32;6.20;;;;;;;;;;335749;28;158502;-77
2021/07/03 01:10:20;;;;;;;7.18;6.20;;;;;;;;;;336442;29;137762;-76
2021/07/03 01:10:34;;;;;;;6.95;5.80;;;;;;;;;;336851;29;115059;-76
2021/07/03 01:10:55;;;;;;;7.15;5.75;;;;;;;;;;335004;29;136060;-77
2021/07/03 01:11:22;;;;;;;6.85;5.90;;;;;;;;;;336382;29;137605;-76
2021/07/03 01:11:34;;;;;;;7.95;6.05;;;;;;;;;;337629;28;137432;-76
2021/07/03 01:11:50;;;;;;;7.38;5.85;;;;;;;;;;342163;28;68972;-77
2021/07/03 01:12:13;;;;;;;7.47;5.80;;;;;;;;;;340628;28;136597;-76
2021/07/03 01:12:32;;;;;;;6.75;5.70;;;;;;;;;;340821;28;138942;-76
2021/07/03 01:12:52;;;;;;;7.15;6.00;;;;;;;;;;343241;28;137861;-76
2021/07/03 01:13:12;;;;;;;7.30;6.18;;;;;;;;;;343770;28;135763;-77
2021/07/03 01:13:32;;;;;;;7.50;5.90;;;;;;;;;;344597;28;138094;-76
2021/07/03 01:13:46;;;;;;;7.10;5.72;;;;;;;;;;343802;28;137660;-75
2021/07/03 01:14:02;;;;;;;7.53;5.70;;;;;;;;;;345230;28;137748;-74
2021/07/03 01:14:15;;;;;;;6.82;5.38;;;;;;;;;;347409;28;91976;-75
2021/07/03 01:14:27;;;;;;;6.20;5.60;;;;;;;;;;348929;28;44952;-75
2021/07/03 01:14:41;;;;;;;6.38;5.70;;;;;;;;;;349088;28;46150;-74
2021/07/03 01:15:17;;;;;;;6.50;5.68;;;;;;;;;;347243;28;137630;-74
2021/07/03 01:15:35;;;;;;;7.07;5.57;;;;;;;;;;347318;28;138906;-75
2021/07/03 01:16:10;;;;;;;7.15;5.50;;;;;;;;;;347451;28;134850;-74
2021/07/03 01:16:33;;;;;;;6.80;5.60;;;;;;;;;;346537;28;160187;-75
2021/07/03 01:16:52;;;;;;;6.28;5.55;;;;;;;;;;344700;28;135944;-74
2021/07/03 01:17:09;;;;;;;7.88;5.93;;;;;;;;;;342500;28;158010;-74
2021/07/03 01:17:28;;;;;;;9.15;6.20;;;;;;;;;;342521;28;159069;-74
2021/07/03 01:17:44;;;;;;;8.32;6.22;;;;;;;;;;343143;28;136150;-75
2021/07/03 01:18:00;;;;;;;6.85;5.80;;;;;;;;;;343069;28;137960;-75
2021/07/03 01:18:20;;;;;;;6.20;5.60;;;;;;;;;;344510;28;138584;-74
2021/07/03 01:18:47;;;;;;;7.15;5.78;;;;;;;;;;342985;28;135380;-75
2021/07/03 01:19:09;;;;;;;7.25;6.13;;;;;;;;;;342044;28;137727;-75
2021/07/03 01:19:27;;;;;;;7.90;6.38;;;;;;;;;;341123;28;158253;-74
2021/07/03 01:19:48;;;;;;;9.23;6.43;;;;;;;;;;341580;28;138606;-75
2021/07/03 01:20:12;;;;;;;7.45;6.68;;;;;;;;;;340895;28;158219;-75
2021/07/03 01:20:34;;;;;;;8.32;6.88;;;;;;;;;;339145;28;137786;-74
2021/07/03 01:21:01;;;;;;;6.93;6.18;;;;;;;;;;337762;28;136390;-75
2021/07/03 01:21:25;;;;;;;6.72;6.00;;;;;;;;;;340550;28;138759;-75
2021/07/03 01:21:54;;;;;;;6.72;5.95;;;;;;;;;;340573;28;138958;-75
2021/07/03 01:22:11;;;;;;;9.10;6.05;;;;;;;;;;341138;28;133859;-75
2021/07/03 01:22:43;;;;;;;;;;;;;;;;;;;;;
2021/07/03 01:23:14;;;;;;;8.60;6.22;;;;;;;;;;343198;28;137252;-75
2021/07/03 01:23:40;;;;;;;7.78;5.72;;;;;;;;;;344434;28;137206;-74
2021/07/03 01:24:13;;;;;;;7.57;6.40;;;;;;;;;;345206;28;137211;-74
2021/07/03 01:24:31;;;;;;;7.90;6.38;;;;;;;;;;347574;28;137356;-73
2021/07/03 01:24:49;;;;;;;7.03;6.07;;;;;;;;;;345868;28;139168;-74
2021/07/03 01:25:22;;;;;;;6.80;6.10;;;;;;;;;;346053;28;137631;-75
2021/07/03 01:25:42;;;;;;;6.95;6.15;;;;;;;;;;341762;28;137964;-74
2021/07/03 01:26:07;;;;;;;7.20;6.30;;;;;;;;;;344445;28;137416;-75
2021/07/03 01:26:53;;;;;;;;;;;;;;;;;;;;;
2021/07/03 01:27:17;;;;;;;7.22;6.25;;;;;;;;;;345924;28;137267;-74
2021/07/03 01:27:41;;;;;;;8.10;6.22;;;;;;;;;;347342;28;137172;-75
2021/07/03 01:28:54;;;;;;;8.32;6.53;;;;;;;;;;345987;28;135646;-74
2021/07/03 01:29:09;;;;;;;8.38;6.57;;;;;;;;;;346580;28;115969;-73
2021/07/03 01:29:41;;;;;;;7.43;6.20;;;;;;;;;;346140;28;35081;-74
2021/07/03 01:30:08;;;;;;;8.75;6.28;;;;;;;;;;343226;28;137061;-75
2021/07/03 01:30:30;;;;;;;7.60;6.47;;;;;;;;;;341178;28;134669;-75
2021/07/03 01:30:43;;;;;;;7.55;6.43;;;;;;;;;;340293;28;138292;-74
2021/07/03 01:31:04;;;;;;;9.40;6.50;;;;;;;;;;341590;28;138875;-74
2021/07/03 01:31:17;;;;;;;7.20;6.32;;;;;;;;;;339587;28;159746;-75
2021/07/03 01:31:47;;;;;;;7.07;6.35;;;;;;;;;;342559;28;70050;-73
2021/07/03 01:32:08;;;;;;;6.63;5.78;;;;;;;;;;340358;28;137587;-75
2021/07/03 01:32:31;;;;;;;7.50;5.60;;;;;;;;;;338281;28;135727;-74
2021/07/03 01:32:52;;;;;;;6.30;5.70;;;;;;;;;;337606;28;136690;-75
2021/07/03 01:33:15;;;;;;;6.70;5.68;;;;;;;;;;337740;28;139191;-74
2021/07/03 01:33:48;;;;;;;7.00;5.72;;;;;;;;;;337800;28;137293;-74
2021/07/03 01:34:20;;;;;;;7.72;6.50;;;;;;;;;;338045;28;35977;-74
2021/07/03 01:34:39;;;;;;;7.45;6.22;;;;;;;;;;340826;28;138503;-75
2021/07/03 01:34:53;;;;;;;7.82;6.00;;;;;;;;;;342297;28;89460;-75
2021/07/03 01:35:11;;;;;;;7.07;5.93;;;;;;;;;;341597;28;138722;-75
2021/07/03 01:35:33;;;;;;;6.60;5.55;;;;;;;;;;341878;28;136558;-75
2021/07/03 01:35:53;;;;;;;6.97;5.88;;;;;;;;;;340788;28;135349;-75
2021/07/03 01:36:16;;;;;;;7.03;6.32;;;;;;;;;;340817;28;137831;-76
2021/07/03 01:36:31;;;;;;;7.22;5.70;;;;;;;;;;340702;28;137601;-75
2021/07/03 01:36:51;;;;;;;6.65;5.53;;;;;;;;;;339454;28;138352;-75
2021/07/03 01:37:11;;;;;;;6.72;5.85;;;;;;;;;;337974;28;137520;-76
2021/07/03 01:37:30;;;;;;;7.63;5.63;;;;;;;;;;338029;28;136906;-76
2021/07/03 01:37:48;;;;;;;7.53;5.72;;;;;;;;;;337944;28;137546;-75
2021/07/03 01:38:21;;;;;;;7.00;5.78;;;;;;;;;;338126;28;138358;-75
2021/07/03 01:38:52;;;;;;;6.38;5.53;;;;;;;;;;340939;28;70165;-75
2021/07/03 01:39:14;;;;;;;7.90;6.15;;;;;;;;;;343488;28;137426;-74
2021/07/03 01:39:40;;;;;;;7.05;6.05;;;;;;;;;;343371;28;138415;-76
2021/07/03 01:40:10;;;;;;;6.88;5.60;;;;;;;;;;344146;28;137794;-75
2021/07/03 01:40:23;;;;;;;6.70;5.80;;;;;;;;;;342169;28;136582;-75
2021/07/03 01:40:45;;;;;;;7.90;5.97;;;;;;;;;;342079;28;136620;-76
2021/07/03 01:41:19;;;;;;;6.88;5.85;;;;;;;;;;338131;28;137138;-75
2021/07/03 01:41:43;;;;;;;6.68;6.03;;;;;;;;;;338125;28;136682;-75
2021/07/03 01:42:01;;;;;;;6.57;5.97;;;;;;;;;;338212;28;136872;-75
2021/07/03 01:42:20;;;;;;;6.40;5.80;;;;;;;;;;337247;28;160753;-73
2021/07/03 01:42:53;;;;;;;12.07;6.40;;;;;;;;;;339582;28;137184;-75
2021/07/03 01:43:12;;;;;;;10.65;6.20;;;;;;;;;;339451;28;136228;-75
2021/07/03 01:43:26;;;;;;;8.35;6.05;;;;;;;;;;339042;28;138776;-75
2021/07/03 01:43:52;;;;;;;8.82;6.00;;;;;;;;;;340857;28;91961;-75
2021/07/03 01:44:28;;;;;;;8.90;6.45;;;;;;;;;;340293;28;34366;-75
2021/07/03 01:44:41;;;;;;;7.45;6.30;;;;;;;;;;338278;28;137713;-75
2021/07/03 01:45:01;;;;;;;7.07;6.38;;;;;;;;;;339521;28;137315;-75
2021/07/03 01:45:31;;;;;;;8.60;6.70;;;;;;;;;;338173;28;138445;-75
2021/07/03 01:45:48;;;;;;;8.27;6.80;;;;;;;;;;337063;28;136853;-76
2021/07/03 01:46:13;;;;;;;8.95;6.80;;;;;;;;;;340454;28;70410;-74
2021/07/03 01:46:54;;;;;;;7.68;6.88;;;;;;;;;;336877;29;136615;-74
2021/07/03 01:47:21;;;;;;;7.43;6.03;;;;;;;;;;338039;28;137334;-75
2021/07/03 01:47:47;;;;;;;6.90;6.07;;;;;;;;;;336619;29;136747;-75
2021/07/03 01:48:19;;;;;;;9.85;6.80;;;;;;;;;;336618;28;137781;-75
2021/07/03 01:48:40;;;;;;;9.05;6.70;;;;;;;;;;338194;28;136128;-75
2021/07/03 01:49:02;;;;;;;10.45;6.78;;;;;;;;;;337969;28;138545;-75
2021/07/03 01:49:18;;;;;;;8.82;6.90;;;;;;;;;;338010;28;137066;-75
2021/07/03 01:49:45;;;;;;;10.38;7.30;;;;;;;;;;338598;28;160186;-75
2021/07/03 01:50:02;;;;;;;9.18;6.75;;;;;;;;;;339225;28;137458;-76
2021/07/03 01:50:29;;;;;;;8.73;6.80;;;;;;;;;;336962;28;159748;-76
2021/07/03 01:51:04;;;;;;;8.65;7.20;;;;;;;;;;337955;28;137432;-75
2021/07/03 01:51:22;;;;;;;8.35;6.78;;;;;;;;;;337923;28;137892;-75
2021/07/03 01:51:43;;;;;;;9.63;6.88;;;;;;;;;;336676;29;136259;-74
2021/07/03 01:52:08;;;;;;;9.07;6.70;;;;;;;;;;334115;29;135127;-75
2021/07/03 01:52:32;;;;;;;7.20;6.13;;;;;;;;;;335580;29;137238;-75
2021/07/03 01:53:14;;;;;;;8.30;6.60;;;;;;;;;;336836;29;135159;-76
2021/07/03 01:53:41;;;;;;;8.18;6.85;;;;;;;;;;337224;28;161310;-76
2021/07/03 01:54:14;;;;;;;7.55;6.70;;;;;;;;;;339476;28;135084;-75
2021/07/03 01:54:46;;;;;;;8.50;6.50;;;;;;;;;;338667;28;138929;-74
2021/07/03 01:55:15;;;;;;;9.00;6.30;;;;;;;;;;336662;29;137566;-75
2021/07/03 01:55:44;;;;;;;9.18;6.72;;;;;;;;;;336706;28;134992;-75
2021/07/03 01:56:19;;;;;;;7.25;6.55;;;;;;;;;;338077;28;138020;-76
2021/07/03 01:57:10;;;;;;;7.78;6.13;;;;;;;;;;338203;28;136836;-75
2021/07/03 01:57:32;;;;;;;8.23;6.97;;;;;;;;;;338438;28;139129;-75
2021/07/03 01:58:05;;;;;;;8.23;6.68;;;;;;;;;;339331;28;136525;-73
2021/07/03 01:58:40;;;;;;;7.53;6.72;;;;;;;;;;339431;28;138123;-74
2021/07/03 01:59:10;;;;;;;8.30;7.10;;;;;;;;;;337107;28;134940;-75
2021/07/03 01:59:43;;;;;;;8.00;6.32;;;;;;;;;;336114;29;160305;-75
2021/07/03 02:00:18;;;;;;;8.00;6.55;;;;;;;;;;336660;29;137407;-74
2021/07/03 02:01:03;;;;;;;10.10;6.93;;;;;;;;;;336796;29;134883;-74
2021/07/03 02:01:41;;;;;;;7.80;7.00;;;;;;;;;;339316;28;138258;-75
2021/07/03 02:01:55;;;;;;;8.50;6.85;;;;;;;;;;337921;28;136751;-74
2021/07/03 02:02:28;;;;;;;8.18;6.47;;;;;;;;;;338905;28;137405;-75
2021/07/03 02:02:42;;;;;;;8.75;6.47;;;;;;;;;;341650;28;114298;-74
2021/07/03 02:03:02;;;;;;;7.47;6.57;;;;;;;;;;339923;28;135819;-75
2021/07/03 02:03:15;;;;;;;7.38;6.50;;;;;;;;;;343628;28;46381;-75
2021/07/03 02:03:28;;;;;;;7.75;6.53;;;;;;;;;;343803;28;68484;-74
2021/07/03 02:04:09;;;;;;;8.52;6.72;;;;;;;;;;343254;28;138753;-75
2021/07/03 02:04:37;;;;;;;7.47;6.68;;;;;;;;;;343537;28;136344;-76
2021/07/03 02:04:59;;;;;;;8.10;6.78;;;;;;;;;;341792;28;138761;-75
2021/07/03 02:05:34;;;;;;;8.00;6.80;;;;;;;;;;346330;28;35426;-75
2021/07/03 02:05:52;;;;;;;7.90;6.70;;;;;;;;;;343983;28;112898;-76
2021/07/03 02:06:17;;;;;;;9.35;6.90;;;;;;;;;;343462;28;138489;-75
2021/07/03 02:06:29;;;;;;;7.40;6.65;;;;;;;;;;343263;28;115018;-75
2021/07/03 02:06:48;;;;;;;7.20;6.50;;;;;;;;;;340681;28;136997;-75
2021/07/03 02:07:11;;;;;;;7.53;6.72;;;;;;;;;;341929;28;138268;-74
2021/07/03 02:07:39;;;;;;;7.22;6.53;;;;;;;;;;340431;28;138639;-75
2021/07/03 02:08:05;;;;;;;7.85;6.57;;;;;;;;;;339364;28;135957;-75
2021/07/03 02:08:25;;;;;;;7.35;6.57;;;;;;;;;;339440;28;137560;-74
2021/07/03 02:08:58;;;;;;;7.70;6.90;;;;;;;;;;338302;28;134848;-74
2021/07/03 02:09:27;;;;;;;9.13;6.30;;;;;;;;;;337700;28;137811;-76
2021/07/03 02:10:11;;;;;;;6.85;6.00;;;;;;;;;;340125;28;138327;-75
2021/07/03 02:10:28;;;;;;;7.72;6.03;;;;;;;;;;341662;28;136178;-76
2021/07/03 02:10:59;;;;;;;7.30;6.13;;;;;;;;;;341358;28;137432;-75
2021/07/03 02:11:23;;;;;;;7.68;6.43;;;;;;;;;;342140;28;136765;-75
2021/07/03 02:11:54;;;;;;;8.43;6.40;;;;;;;;;;340085;28;138947;-73
2021/07/03 02:12:16;;;;;;;6.70;6.00;;;;;;;;;;341701;28;135790;-74
2021/07/03 02:12:31;;;;;;;6.55;5.85;;;;;;;;;;342465;28;114273;-75
2021/07/03 02:12:46;;;;;;;7.55;6.10;;;;;;;;;;346913;28;68911;-74